Time;durP1;ratioP1;P1;durP2;ratioP2;P2;SDS_P1;SDS_P2;PMS_P1;PMS_P2;Temp;Humidity;BMP_temperature;BMP_pressure;BME280_temperature;BME280_humidity;BME280_pressure;Samples;Min_cycle;Max_cycle;Signal;HPM_P1;HPM_P2
2021/05/13 00:00:32;;;;;;;17.43;9.97;;;;;;;;;;10524498;28;20235;-69
2021/05/13 00:05:34;;;;;;;18.17;10.17;;;;;;;;;;10520750;28;20219;-69
2021/05/13 00:10:36;;;;;;;14.67;9.83;;;;;;;;;;10519181;28;20642;-69
2021/05/13 00:15:40;;;;;;;16.00;9.63;;;;;;;;;;10522442;28;20196;-70
2021/05/13 00:20:43;;;;;;;15.10;9.67;;;;;;;;;;10515809;28;20586;-69
2021/05/13 00:25:47;;;;;;;16.70;9.33;;;;;;;;;;10530541;28;20207;-70
2021/05/13 00:30:50;;;;;;;17.77;10.30;;;;;;;;;;10534623;28;20781;-69
2021/05/13 00:35:52;;;;;;;17.50;10.07;;;;;;;;;;10523970;28;20569;-69
2021/05/13 00:40:54;;;;;;;17.93;10.30;;;;;;;;;;10522454;28;20304;-69
2021/05/13 00:45:57;;;;;;;17.23;9.83;;;;;;;;;;10528924;28;20332;-69
2021/05/13 00:50:59;;;;;;;16.40;9.87;;;;;;;;;;10524822;28;20219;-69
2021/05/13 00:56:02;;;;;;;16.00;10.03;;;;;;;;;;10522064;28;20214;-69
2021/05/13 01:01:06;;;;;;;18.10;10.37;;;;;;;;;;10528245;28;20208;-69
2021/05/13 01:06:09;;;;;;;15.70;9.67;;;;;;;;;;10513966;28;20242;-70
2021/05/13 01:11:14;;;;;;;18.07;10.37;;;;;;;;;;10521704;28;20207;-69
2021/05/13 01:16:26;;;;;;;17.17;10.47;;;;;;;;;;10520055;28;20662;-69
2021/05/13 01:21:29;;;;;;;18.50;11.07;;;;;;;;;;10517930;28;20287;-69
2021/05/13 01:26:31;;;;;;;18.10;10.33;;;;;;;;;;10526661;28;20208;-69
2021/05/13 01:31:33;;;;;;;17.80;10.07;;;;;;;;;;10522405;28;20230;-69
2021/05/13 01:36:37;;;;;;;17.83;10.90;;;;;;;;;;10527418;28;20207;-70
2021/05/13 01:41:40;;;;;;;17.50;9.37;;;;;;;;;;10515858;28;20212;-70
2021/05/13 01:46:42;;;;;;;17.70;11.07;;;;;;;;;;10521139;28;20204;-69
2021/05/13 01:51:45;;;;;;;18.33;11.47;;;;;;;;;;10507650;28;20304;-69
2021/05/13 01:56:48;;;;;;;19.57;11.63;;;;;;;;;;10521709;28;20698;-69
2021/05/13 02:01:50;;;;;;;21.37;12.23;;;;;;;;;;10521157;28;20207;-69
2021/05/13 02:06:53;;;;;;;20.13;11.67;;;;;;;;;;10516564;28;20207;-69
2021/05/13 02:11:58;;;;;;;18.43;11.93;;;;;;;;;;10513908;28;20960;-69
2021/05/13 02:17:01;;;;;;;20.37;11.07;;;;;;;;;;10518190;28;20221;-69
2021/05/13 02:22:04;;;;;;;19.10;10.00;;;;;;;;;;10518190;28;20227;-69
2021/05/13 02:27:06;;;;;;;17.23;10.80;;;;;;;;;;10520011;28;20230;-69
2021/05/13 02:32:08;;;;;;;17.10;8.97;;;;;;;;;;10525494;28;20303;-69
2021/05/13 02:37:11;;;;;;;16.40;9.60;;;;;;;;;;10522447;28;20268;-68
2021/05/13 02:42:13;;;;;;;18.53;10.47;;;;;;;;;;10522528;28;20631;-69
2021/05/13 02:47:15;;;;;;;16.00;8.73;;;;;;;;;;10521749;28;20299;-70
2021/05/13 02:52:18;;;;;;;16.90;9.40;;;;;;;;;;10526445;28;20239;-67
2021/05/13 02:57:20;;;;;;;17.63;10.60;;;;;;;;;;10524440;28;20191;-70
2021/05/13 03:02:22;;;;;;;16.97;9.83;;;;;;;;;;10523653;28;20223;-68
2021/05/13 03:07:25;;;;;;;16.33;9.67;;;;;;;;;;10534947;28;20199;-69
2021/05/13 03:12:27;;;;;;;17.43;10.50;;;;;;;;;;10528229;28;20247;-69
2021/05/13 03:17:29;;;;;;;17.93;10.57;;;;;;;;;;10528056;28;20275;-69
2021/05/13 03:22:33;;;;;;;18.17;10.87;;;;;;;;;;10533623;28;20299;-69
2021/05/13 03:27:45;;;;;;;17.87;10.10;;;;;;;;;;10521537;28;20616;-69
2021/05/13 03:32:47;;;;;;;18.27;10.07;;;;;;;;;;10527227;28;20298;-68
2021/05/13 03:37:50;;;;;;;19.13;10.43;;;;;;;;;;10529105;28;20642;-69
2021/05/13 03:42:52;;;;;;;19.60;10.63;;;;;;;;;;10526633;28;20582;-68
2021/05/13 03:47:54;;;;;;;17.43;9.13;;;;;;;;;;10530294;28;20202;-70
2021/05/13 03:52:57;;;;;;;16.90;9.30;;;;;;;;;;10521651;28;20664;-70
2021/05/13 03:58:01;;;;;;;15.53;9.07;;;;;;;;;;10529338;28;20273;-68
2021/05/13 04:03:03;;;;;;;16.40;9.87;;;;;;;;;;10523200;28;20591;-69
2021/05/13 04:08:07;;;;;;;17.63;9.60;;;;;;;;;;10525087;28;20599;-69
2021/05/13 04:13:12;;;;;;;17.00;9.40;;;;;;;;;;10535755;28;20650;-69
2021/05/13 04:18:26;;;;;;;16.30;9.43;;;;;;;;;;10523881;28;20351;-70
2021/05/13 04:23:28;;;;;;;16.43;8.97;;;;;;;;;;10527361;28;20227;-68
2021/05/13 04:28:31;;;;;;;15.20;8.70;;;;;;;;;;10525301;28;20227;-69
2021/05/13 04:33:33;;;;;;;13.90;8.67;;;;;;;;;;10528197;28;20703;-68
2021/05/13 04:38:36;;;;;;;15.17;8.93;;;;;;;;;;10522083;28;20211;-70
2021/05/13 04:43:38;;;;;;;16.20;9.47;;;;;;;;;;10515528;28;20286;-68
2021/05/13 04:48:53;;;;;;;16.63;9.20;;;;;;;;;;10495296;28;20206;-69
2021/05/13 04:53:56;;;;;;;17.30;9.77;;;;;;;;;;10504912;28;20270;-69
2021/05/13 04:58:58;;;;;;;15.73;9.63;;;;;;;;;;10527113;28;20211;-70
2021/05/13 05:04:00;;;;;;;14.90;8.80;;;;;;;;;;10520716;28;20270;-68
2021/05/13 05:09:04;;;;;;;14.33;8.37;;;;;;;;;;10521740;28;20219;-69
2021/05/13 05:14:06;;;;;;;18.23;9.73;;;;;;;;;;10511913;28;20216;-69
2021/05/13 05:19:08;;;;;;;14.80;9.00;;;;;;;;;;10502685;28;20313;-69
2021/05/13 05:24:11;;;;;;;16.07;9.00;;;;;;;;;;10506731;28;20192;-69
2021/05/13 05:29:13;;;;;;;18.03;8.40;;;;;;;;;;10496869;28;20234;-68
2021/05/13 05:34:15;;;;;;;14.73;9.50;;;;;;;;;;10521261;28;20231;-68
2021/05/13 05:39:18;;;;;;;16.57;8.67;;;;;;;;;;10522809;28;20216;-70
2021/05/13 05:44:20;;;;;;;15.17;8.90;;;;;;;;;;10519227;28;20196;-69
2021/05/13 05:49:23;;;;;;;15.73;8.33;;;;;;;;;;10514984;28;20226;-69
2021/05/13 05:54:25;;;;;;;14.43;9.00;;;;;;;;;;10524544;28;20747;-69
2021/05/13 05:59:27;;;;;;;13.07;8.10;;;;;;;;;;10514608;28;20300;-69
2021/05/13 06:04:29;;;;;;;15.07;9.03;;;;;;;;;;10511828;28;20238;-69
2021/05/13 06:09:33;;;;;;;14.50;7.93;;;;;;;;;;10518743;28;20220;-69
2021/05/13 06:14:35;;;;;;;13.77;8.23;;;;;;;;;;10521710;28;20234;-68
2021/05/13 06:19:37;;;;;;;15.53;8.80;;;;;;;;;;10518831;28;20269;-71
2021/05/13 06:24:40;;;;;;;14.10;8.43;;;;;;;;;;10520132;28;20231;-71
2021/05/13 06:29:42;;;;;;;12.93;8.60;;;;;;;;;;10517754;28;20663;-76
2021/05/13 06:34:45;;;;;;;13.57;7.73;;;;;;;;;;10532156;28;20223;-71
2021/05/13 06:39:47;;;;;;;14.20;8.10;;;;;;;;;;10524175;28;20220;-70
2021/05/13 06:44:50;;;;;;;13.97;7.90;;;;;;;;;;10528664;28;20643;-67
2021/05/13 06:49:52;;;;;;;13.23;7.27;;;;;;;;;;10526862;28;20212;-68
2021/05/13 06:54:55;;;;;;;13.40;7.60;;;;;;;;;;10533944;28;20245;-68
2021/05/13 06:59:57;;;;;;;12.33;7.07;;;;;;;;;;10525366;28;20651;-68
2021/05/13 07:04:59;;;;;;;10.80;6.70;;;;;;;;;;10528399;28;20195;-67
2021/05/13 07:10:03;;;;;;;11.37;6.97;;;;;;;;;;10513446;28;20699;-68
2021/05/13 07:15:06;;;;;;;11.50;7.37;;;;;;;;;;10524835;28;20241;-66
2021/05/13 07:20:09;;;;;;;11.93;7.47;;;;;;;;;;10526752;28;20291;-67
2021/05/13 07:25:13;;;;;;;13.03;7.13;;;;;;;;;;10520296;28;20195;-69
2021/05/13 07:30:16;;;;;;;11.27;6.43;;;;;;;;;;10518276;28;20219;-71
2021/05/13 07:35:18;;;;;;;11.50;6.83;;;;;;;;;;10526855;28;20786;-69
2021/05/13 07:40:22;;;;;;;12.30;7.03;;;;;;;;;;10521469;28;20288;-68
2021/05/13 07:45:25;;;;;;;10.33;6.70;;;;;;;;;;10531233;28;20196;-68
2021/05/13 07:50:27;;;;;;;12.67;6.50;;;;;;;;;;10519784;28;20270;-68
2021/05/13 07:55:30;;;;;;;11.00;6.23;;;;;;;;;;10523422;28;20291;-68
2021/05/13 08:00:32;;;;;;;11.43;6.03;;;;;;;;;;10510224;28;20215;-69
2021/05/13 08:05:34;;;;;;;10.80;6.30;;;;;;;;;;10510562;28;20776;-68
2021/05/13 08:10:37;;;;;;;9.20;5.70;;;;;;;;;;10504807;28;20516;-68
2021/05/13 08:15:39;;;;;;;12.23;5.83;;;;;;;;;;10510053;28;20282;-71
2021/05/13 08:20:41;;;;;;;10.33;5.67;;;;;;;;;;10502277;28;20212;-71
2021/05/13 08:25:44;;;;;;;12.43;5.80;;;;;;;;;;10510988;28;20207;-69
2021/05/13 08:30:46;;;;;;;9.30;5.50;;;;;;;;;;10527569;28;20993;-69
2021/05/13 08:35:48;;;;;;;9.63;5.00;;;;;;;;;;10525829;28;20191;-70
2021/05/13 08:40:52;;;;;;;9.47;5.57;;;;;;;;;;10526052;28;20235;-70
2021/05/13 08:45:56;;;;;;;11.47;6.93;;;;;;;;;;10524005;28;20195;-71
2021/05/13 08:50:59;;;;;;;10.27;5.63;;;;;;;;;;10519023;28;20215;-71
2021/05/13 08:56:02;;;;;;;10.17;5.47;;;;;;;;;;10524862;28;20268;-69
2021/05/13 09:01:06;;;;;;;10.63;5.17;;;;;;;;;;10519005;28;20287;-72
2021/05/13 09:06:08;;;;;;;8.07;4.70;;;;;;;;;;10529687;28;20227;-69
2021/05/13 09:11:12;;;;;;;6.97;4.13;;;;;;;;;;10524251;28;20293;-71
2021/05/13 09:16:31;;;;;;;9.70;4.53;;;;;;;;;;10523297;28;20241;-70
2021/05/13 09:21:49;;;;;;;7.70;4.33;;;;;;;;;;10521928;28;20298;-67
2021/05/13 09:26:52;;;;;;;8.63;4.30;;;;;;;;;;10518068;28;20557;-68
2021/05/13 09:31:55;;;;;;;8.07;4.30;;;;;;;;;;10522652;28;20208;-68
2021/05/13 09:36:58;;;;;;;7.43;4.83;;;;;;;;;;10523807;28;20282;-70
2021/05/13 09:42:01;;;;;;;8.47;4.80;;;;;;;;;;10519659;28;20338;-69
2021/05/13 09:47:13;;;;;;;8.03;4.27;;;;;;;;;;10517883;28;20192;-69
2021/05/13 09:52:34;;;;;;;7.30;4.00;;;;;;;;;;10521209;28;20290;-70
2021/05/13 09:57:38;;;;;;;7.83;4.07;;;;;;;;;;10525995;28;20663;-71
2021/05/13 10:02:40;;;;;;;8.30;4.27;;;;;;;;;;10520069;28;20244;-70
2021/05/13 10:07:42;;;;;;;10.00;4.70;;;;;;;;;;10525672;28;20204;-72
2021/05/13 10:13:06;;;;;;;9.63;4.60;;;;;;;;;;10527225;28;20226;-70
2021/05/13 10:18:15;;;;;;;9.57;4.47;;;;;;;;;;10527820;28;20204;-70
2021/05/13 10:23:17;;;;;;;8.73;3.80;;;;;;;;;;10522497;28;20212;-69
2021/05/13 10:28:27;;;;;;;7.93;4.10;;;;;;;;;;10525949;28;20547;-70
2021/05/13 10:33:42;;;;;;;7.30;3.37;;;;;;;;;;10517101;28;20219;-70
2021/05/13 10:38:49;;;;;;;8.20;4.73;;;;;;;;;;10521450;28;20191;-70
2021/05/13 10:43:52;;;;;;;9.57;4.57;;;;;;;;;;10522846;28;20196;-69
2021/05/13 10:49:12;;;;;;;7.87;4.90;;;;;;;;;;10518743;28;20219;-69
2021/05/13 10:54:40;;;;;;;9.10;5.10;;;;;;;;;;10518391;28;20520;-69
2021/05/13 11:00:16;;;;;;;9.33;5.83;;;;;;;;;;10540632;28;20243;-69
2021/05/13 11:05:41;;;;;;;8.13;4.60;;;;;;;;;;10511003;28;20219;-69
2021/05/13 11:10:58;;;;;;;8.90;5.03;;;;;;;;;;10512565;28;20308;-69
2021/05/13 11:16:01;;;;;;;7.83;4.30;;;;;;;;;;10520961;28;20183;-68
2021/05/13 11:21:03;;;;;;;7.80;4.07;;;;;;;;;;10523067;28;20261;-69
2021/05/13 11:26:07;;;;;;;7.37;4.10;;;;;;;;;;10530590;28;20196;-69
2021/05/13 11:31:13;;;;;;;7.27;4.07;;;;;;;;;;10528481;28;20618;-70
2021/05/13 11:36:16;;;;;;;6.90;3.50;;;;;;;;;;10519513;28;20249;-70
2021/05/13 11:41:18;;;;;;;6.03;3.30;;;;;;;;;;10525492;28;20290;-69
2021/05/13 11:46:22;;;;;;;8.33;4.23;;;;;;;;;;10523770;28;20188;-69
2021/05/13 11:51:25;;;;;;;6.77;3.77;;;;;;;;;;10520298;28;20293;-68
2021/05/13 11:56:28;;;;;;;9.13;4.37;;;;;;;;;;10518954;28;20191;-68
2021/05/13 12:01:32;;;;;;;9.90;4.50;;;;;;;;;;10521252;28;20214;-67
2021/05/13 12:06:57;;;;;;;7.07;3.60;;;;;;;;;;10530208;28;20195;-68
2021/05/13 12:12:01;;;;;;;6.10;3.20;;;;;;;;;;10520972;28;20667;-69
2021/05/13 12:17:05;;;;;;;3.70;1.90;;;;;;;;;;10528545;28;20195;-67
2021/05/13 12:22:09;;;;;;;6.30;2.73;;;;;;;;;;10525985;28;20204;-69
2021/05/13 12:27:12;;;;;;;6.87;3.37;;;;;;;;;;10525116;28;20188;-68
2021/05/13 12:32:28;;;;;;;6.27;3.10;;;;;;;;;;10527233;28;20303;-68
2021/05/13 12:37:30;;;;;;;7.10;3.70;;;;;;;;;;10528337;28;20218;-69
2021/05/13 12:42:32;;;;;;;8.37;3.87;;;;;;;;;;10524645;28;20270;-69
2021/05/13 12:47:35;;;;;;;7.03;3.97;;;;;;;;;;10529269;28;20303;-69
2021/05/13 12:52:39;;;;;;;7.47;4.37;;;;;;;;;;10521431;28;20255;-69
2021/05/13 12:57:42;;;;;;;7.43;4.00;;;;;;;;;;10518799;28;20192;-70
2021/05/13 13:02:45;;;;;;;7.37;4.03;;;;;;;;;;10519538;28;20239;-69
2021/05/13 13:07:47;;;;;;;8.33;4.20;;;;;;;;;;10523595;28;20200;-68
2021/05/13 13:13:00;;;;;;;7.77;3.67;;;;;;;;;;10513557;28;20216;-68
2021/05/13 13:18:04;;;;;;;8.30;4.10;;;;;;;;;;10527075;28;20328;-68
2021/05/13 13:23:25;;;;;;;9.13;4.93;;;;;;;;;;10520431;28;20738;-68
2021/05/13 13:28:27;;;;;;;9.07;4.10;;;;;;;;;;10521638;28;20277;-68
2021/05/13 13:33:30;;;;;;;6.97;3.00;;;;;;;;;;10524356;28;20723;-68
2021/05/13 13:38:33;;;;;;;4.27;1.90;;;;;;;;;;10519625;28;20336;-69
2021/05/13 13:43:35;;;;;;;5.00;1.50;;;;;;;;;;10523648;28;20199;-69
2021/05/13 13:48:39;;;;;;;2.27;1.10;;;;;;;;;;10523603;28;20244;-67
2021/05/13 13:53:41;;;;;;;3.27;1.37;;;;;;;;;;10520126;28;20204;-67
2021/05/13 13:58:43;;;;;;;3.13;1.20;;;;;;;;;;10513166;28;20257;-68
2021/05/13 14:03:46;;;;;;;5.93;1.93;;;;;;;;;;10519525;28;20183;-68
2021/05/13 14:08:48;;;;;;;1.20;0.90;;;;;;;;;;10521669;28;20389;-69
2021/05/13 14:13:51;;;;;;;1.63;0.80;;;;;;;;;;10520156;28;20698;-68
2021/05/13 14:18:54;;;;;;;1.27;0.90;;;;;;;;;;10520997;28;20561;-69
2021/05/13 14:23:56;;;;;;;1.57;0.90;;;;;;;;;;10522113;28;20655;-69
2021/05/13 14:28:58;;;;;;;2.77;1.03;;;;;;;;;;10520230;28;20291;-68
2021/05/13 14:34:02;;;;;;;2.07;1.20;;;;;;;;;;10517580;28;20252;-68
2021/05/13 14:39:04;;;;;;;3.23;1.37;;;;;;;;;;10515361;28;20226;-68
2021/05/13 14:44:06;;;;;;;1.73;1.17;;;;;;;;;;10529969;28;20192;-68
2021/05/13 14:49:11;;;;;;;3.27;1.47;;;;;;;;;;10520915;28;20294;-70
2021/05/13 14:54:14;;;;;;;2.33;1.10;;;;;;;;;;10518354;28;20565;-68
2021/05/13 14:59:16;;;;;;;3.00;1.50;;;;;;;;;;10523371;28;20295;-69
2021/05/13 15:04:19;;;;;;;3.53;1.83;;;;;;;;;;10533827;28;20247;-69
2021/05/13 15:09:21;;;;;;;5.27;2.60;;;;;;;;;;10524742;28;20694;-69
2021/05/13 15:14:23;;;;;;;3.07;1.80;;;;;;;;;;10524193;28;20232;-69
2021/05/13 15:19:26;;;;;;;2.13;1.47;;;;;;;;;;10527275;28;20246;-70
2021/05/13 15:24:28;;;;;;;3.83;1.70;;;;;;;;;;10525366;28;20275;-69
2021/05/13 15:29:30;;;;;;;2.37;1.60;;;;;;;;;;10521997;28;20231;-69
2021/05/13 15:34:33;;;;;;;3.83;1.90;;;;;;;;;;10526127;28;20563;-70
2021/05/13 15:39:35;;;;;;;3.87;1.60;;;;;;;;;;10522944;28;20223;-69
2021/05/13 15:44:37;;;;;;;3.23;1.70;;;;;;;;;;10524013;28;20307;-69
2021/05/13 15:49:40;;;;;;;3.83;1.50;;;;;;;;;;10521009;28;20222;-69
2021/05/13 15:54:42;;;;;;;3.03;1.70;;;;;;;;;;10518901;28;20243;-70
2021/05/13 16:00:05;;;;;;;5.23;1.60;;;;;;;;;;10522404;28;20239;-68
2021/05/13 16:05:10;;;;;;;3.33;1.50;;;;;;;;;;10527223;28;20207;-68
2021/05/13 16:10:13;;;;;;;2.23;1.13;;;;;;;;;;10527977;28;20269;-68
2021/05/13 16:15:15;;;;;;;3.13;1.30;;;;;;;;;;10515880;28;20662;-69
2021/05/13 16:20:19;;;;;;;4.00;1.70;;;;;;;;;;10526002;28;20269;-69
2021/05/13 16:25:21;;;;;;;3.13;1.60;;;;;;;;;;10509578;28;20188;-69
2021/05/13 16:30:23;;;;;;;3.23;1.70;;;;;;;;;;10523990;28;20227;-69
2021/05/13 16:35:26;;;;;;;2.83;1.50;;;;;;;;;;10515526;28;20264;-68
2021/05/13 16:40:28;;;;;;;2.37;1.50;;;;;;;;;;10522641;28;20242;-69
2021/05/13 16:45:30;;;;;;;2.87;1.50;;;;;;;;;;10522338;28;20191;-68
2021/05/13 16:50:34;;;;;;;3.90;1.77;;;;;;;;;;10521618;28;20242;-68
2021/05/13 16:55:36;;;;;;;5.00;2.67;;;;;;;;;;10517767;28;20235;-69
2021/05/13 17:00:38;;;;;;;5.00;1.80;;;;;;;;;;10525671;28;20644;-68
2021/05/13 17:05:41;;;;;;;2.27;1.30;;;;;;;;;;10519541;28;20189;-67
2021/05/13 17:10:43;;;;;;;4.10;1.80;;;;;;;;;;10517876;28;20683;-69
2021/05/13 17:15:45;;;;;;;3.50;1.73;;;;;;;;;;10513198;28;20243;-69
2021/05/13 17:20:48;;;;;;;2.57;1.50;;;;;;;;;;10515324;28;20265;-68
2021/05/13 17:25:50;;;;;;;3.03;1.10;;;;;;;;;;10519882;28;20228;-68
2021/05/13 17:30:52;;;;;;;1.40;1.00;;;;;;;;;;10527817;28;20650;-68
2021/05/13 17:35:55;;;;;;;3.90;1.07;;;;;;;;;;10507232;28;20216;-69
2021/05/13 17:41:00;;;;;;;2.70;1.50;;;;;;;;;;10518244;28;20269;-68
2021/05/13 17:46:02;;;;;;;1.97;1.10;;;;;;;;;;10526205;28;20180;-68
2021/05/13 17:51:06;;;;;;;3.67;1.17;;;;;;;;;;10518996;28;20242;-69
2021/05/13 17:56:08;;;;;;;3.47;1.27;;;;;;;;;;10520334;28;20734;-67
2021/05/13 18:01:10;;;;;;;3.20;1.53;;;;;;;;;;10518178;28;20283;-68
2021/05/13 18:06:13;;;;;;;3.80;1.60;;;;;;;;;;10522877;28;20667;-67
2021/05/13 18:11:16;;;;;;;4.33;1.97;;;;;;;;;;10517910;28;20690;-69
2021/05/13 18:16:20;;;;;;;3.33;1.40;;;;;;;;;;10514212;28;20203;-70
2021/05/13 18:21:25;;;;;;;4.57;1.60;;;;;;;;;;10520260;28;20228;-68
2021/05/13 18:26:27;;;;;;;3.00;1.43;;;;;;;;;;10513174;28;20196;-67
2021/05/13 18:31:30;;;;;;;4.17;1.60;;;;;;;;;;10527640;28;20393;-67
2021/05/13 18:36:33;;;;;;;5.63;2.03;;;;;;;;;;10533777;28;20235;-67
2021/05/13 18:41:35;;;;;;;3.97;2.03;;;;;;;;;;10529663;28;20219;-67
2021/05/13 18:46:37;;;;;;;4.13;1.70;;;;;;;;;;10512390;28;20195;-67
2021/05/13 18:51:40;;;;;;;4.67;2.20;;;;;;;;;;10520703;28;20235;-68
2021/05/13 18:56:48;;;;;;;6.10;2.23;;;;;;;;;;10522564;28;20222;-67
2021/05/13 19:01:50;;;;;;;4.20;2.03;;;;;;;;;;10524203;28;20219;-69
2021/05/13 19:06:54;;;;;;;4.93;2.43;;;;;;;;;;10520095;28;20211;-68
2021/05/13 19:11:56;;;;;;;6.70;2.50;;;;;;;;;;10524358;28;20554;-68
2021/05/13 19:17:08;;;;;;;3.77;2.10;;;;;;;;;;10519321;28;20204;-70
2021/05/13 19:22:11;;;;;;;5.73;2.87;;;;;;;;;;10529707;28;20219;-70
2021/05/13 19:27:25;;;;;;;5.87;2.73;;;;;;;;;;10518780;28;20643;-69
2021/05/13 19:37:48;;;;;;;4.13;2.03;;;;;;;;;;10522508;28;20296;-69
2021/05/13 19:42:50;;;;;;;5.70;2.10;;;;;;;;;;10526675;28;20661;-69
2021/05/13 19:47:52;;;;;;;3.17;1.87;;;;;;;;;;10521832;28;20226;-69
2021/05/13 19:52:57;;;;;;;5.90;2.57;;;;;;;;;;10515786;28;20339;-69
2021/05/13 19:58:01;;;;;;;4.90;2.20;;;;;;;;;;10526237;28;20576;-68
2021/05/13 20:03:10;;;;;;;5.03;2.50;;;;;;;;;;10520655;28;20274;-67
2021/05/13 20:08:25;;;;;;;3.20;2.00;;;;;;;;;;10515775;28;20195;-68
2021/05/13 20:13:30;;;;;;;4.43;2.10;;;;;;;;;;10518600;28;20203;-67
2021/05/13 20:18:33;;;;;;;3.77;2.07;;;;;;;;;;10537762;28;20203;-69
2021/05/13 20:23:40;;;;;;;4.20;1.70;;;;;;;;;;10527534;28;20241;-69
2021/05/13 20:28:46;;;;;;;5.33;2.30;;;;;;;;;;10522481;28;20196;-68
2021/05/13 20:33:48;;;;;;;5.13;2.47;;;;;;;;;;10523877;28;20211;-68
2021/05/13 20:38:52;;;;;;;2.43;1.60;;;;;;;;;;10521689;28;20648;-68
2021/05/13 20:43:54;;;;;;;4.27;2.20;;;;;;;;;;10523079;28;20200;-69
2021/05/13 20:48:58;;;;;;;2.47;1.53;;;;;;;;;;10526334;28;20239;-70
2021/05/13 20:59:22;;;;;;;4.23;1.90;;;;;;;;;;10517885;28;20210;-71
2021/05/13 21:04:28;;;;;;;3.40;1.97;;;;;;;;;;10525586;28;20638;-71
2021/05/13 21:20:33;;;;;;;2.13;1.20;;;;;;;;;;10485178;28;20718;-72
2021/05/13 21:25:49;;;;;;;2.37;1.07;;;;;;;;;;10520038;28;20215;-69
2021/05/13 21:30:51;;;;;;;3.83;1.33;;;;;;;;;;10526057;28;20214;-69
2021/05/13 21:35:54;;;;;;;1.90;1.30;;;;;;;;;;10526116;28;20219;-69
2021/05/13 21:40:56;;;;;;;2.40;1.50;;;;;;;;;;10520762;28;20220;-70
2021/05/13 21:45:59;;;;;;;3.87;1.80;;;;;;;;;;10524687;28;20241;-70
2021/05/13 21:51:02;;;;;;;3.53;1.53;;;;;;;;;;10527027;28;20249;-72
2021/05/13 21:56:07;;;;;;;3.47;1.80;;;;;;;;;;10524771;28;20698;-71
2021/05/13 22:01:09;;;;;;;2.70;1.50;;;;;;;;;;10517143;28;20360;-70
2021/05/13 22:06:11;;;;;;;3.73;1.90;;;;;;;;;;10519914;28;20215;-71
2021/05/13 22:11:15;;;;;;;3.37;1.83;;;;;;;;;;10516723;28;20310;-71
2021/05/13 22:16:17;;;;;;;5.60;1.90;;;;;;;;;;10523157;28;20208;-71
2021/05/13 22:21:20;;;;;;;2.93;1.40;;;;;;;;;;10521350;28;20234;-72
2021/05/13 22:26:24;;;;;;;4.10;1.90;;;;;;;;;;10525955;28;20188;-70
2021/05/13 22:31:26;;;;;;;4.37;2.07;;;;;;;;;;10521801;28;20238;-71
2021/05/13 22:36:28;;;;;;;2.63;1.60;;;;;;;;;;10525386;28;20264;-70
2021/05/13 22:41:31;;;;;;;3.17;1.80;;;;;;;;;;10521304;28;20243;-71
2021/05/13 22:46:33;;;;;;;3.13;1.70;;;;;;;;;;10525390;28;20195;-70
2021/05/13 22:51:35;;;;;;;2.67;1.20;;;;;;;;;;10525649;28;20221;-71
2021/05/13 22:56:38;;;;;;;3.97;1.80;;;;;;;;;;10520580;28;20284;-72
2021/05/13 23:01:40;;;;;;;3.80;1.80;;;;;;;;;;10520095;28;20218;-70
2021/05/13 23:06:43;;;;;;;3.80;1.87;;;;;;;;;;10520650;28;20257;-71
2021/05/13 23:11:46;;;;;;;3.23;1.73;;;;;;;;;;10515684;28;20250;-70
2021/05/13 23:16:48;;;;;;;3.80;1.80;;;;;;;;;;10530272;28;20273;-69
2021/05/13 23:21:50;;;;;;;3.97;1.80;;;;;;;;;;10525951;28;20242;-70
2021/05/13 23:26:54;;;;;;;3.90;1.83;;;;;;;;;;10525179;28;20722;-71
2021/05/13 23:31:56;;;;;;;3.77;1.63;;;;;;;;;;10529019;28;20298;-71
2021/05/13 23:36:59;;;;;;;4.57;1.70;;;;;;;;;;10528235;28;20302;-69
2021/05/13 23:42:02;;;;;;;3.93;2.00;;;;;;;;;;10524512;28;20303;-70
2021/05/13 23:47:04;;;;;;;3.07;1.60;;;;;;;;;;10527841;28;20188;-70
2021/05/13 23:52:06;;;;;;;4.00;1.60;;;;;;;;;;10530398;28;20215;-70
2021/05/13 23:57:09;;;;;;;4.70;1.70;;;;;;;;;;10526714;28;20204;-70
